createdAt,value
2022-12-22T00:00:23.050Z,0.99
2022-12-22T00:03:08.189Z,0.84
2022-12-22T00:05:53.400Z,0.92
2022-12-22T00:08:38.349Z,0.88
2022-12-22T00:11:28.226Z,0.95
2022-12-22T00:14:13.090Z,1.06
2022-12-22T00:16:58.108Z,1.08
2022-12-22T00:19:45.255Z,0.95
2022-12-22T00:22:42.730Z,0.94
2022-12-22T00:25:32.721Z,0.85
2022-12-22T00:28:17.898Z,0.84
2022-12-22T00:31:03.999Z,0.89
2022-12-22T00:33:49.227Z,0.90
2022-12-22T00:36:34.510Z,0.91
2022-12-22T00:39:19.490Z,0.84
2022-12-22T00:42:04.277Z,0.76
2022-12-22T00:44:49.582Z,0.89
2022-12-22T00:47:47.583Z,0.87
2022-12-22T00:50:33.444Z,0.80
2022-12-22T00:53:19.386Z,0.81
2022-12-22T00:56:04.404Z,0.85
2022-12-22T00:58:49.823Z,0.76
2022-12-22T01:01:36.223Z,0.95
2022-12-22T01:04:21.636Z,0.93
2022-12-22T01:07:06.471Z,0.97
2022-12-22T01:09:51.250Z,1.07
2022-12-22T01:12:41.499Z,0.96
2022-12-22T01:15:38.013Z,1.09
2022-12-22T01:18:24.297Z,1.13
2022-12-22T01:21:10.155Z,1.08
2022-12-22T01:23:55.847Z,1.22
2022-12-22T01:26:40.839Z,1.35
2022-12-22T01:29:26.187Z,1.26
2022-12-22T01:32:11.719Z,1.13
2022-12-22T01:34:56.536Z,1.20
2022-12-22T01:37:42.049Z,1.04
2022-12-22T01:40:39.482Z,1.27
2022-12-22T01:43:44.467Z,1.43
2022-12-22T01:46:39.606Z,1.35
2022-12-22T01:49:27.932Z,1.32
2022-12-22T01:52:12.941Z,1.39
2022-12-22T01:54:58.244Z,1.36
2022-12-22T01:57:43.767Z,1.35
2022-12-22T02:00:29.180Z,1.39
2022-12-22T02:03:14.628Z,1.44
2022-12-22T02:06:14.911Z,1.39
2022-12-22T02:09:05.219Z,1.38
2022-12-22T02:12:23.200Z,1.53
2022-12-22T02:15:22.859Z,1.63
2022-12-22T02:18:13.809Z,1.45
2022-12-22T02:21:01.176Z,1.45
2022-12-22T02:24:07.421Z,1.70
2022-12-22T02:26:56.543Z,1.58
2022-12-22T02:29:48.320Z,1.57
2022-12-22T02:32:33.147Z,1.86
2022-12-22T02:35:18.337Z,1.80
2022-12-22T02:38:37.239Z,2.00
2022-12-22T02:41:44.329Z,2.16
2022-12-22T02:45:12.063Z,2.02
2022-12-22T02:48:09.632Z,2.00
2022-12-22T02:51:05.599Z,1.93
2022-12-22T02:53:50.989Z,2.06
2022-12-22T02:56:35.900Z,2.02
2022-12-22T02:59:20.728Z,2.02
2022-12-22T03:02:05.783Z,2.09
2022-12-22T03:04:50.972Z,2.35
2022-12-22T03:07:36.183Z,2.27
2022-12-22T03:10:21.539Z,2.23
2022-12-22T03:13:06.390Z,2.24
2022-12-22T03:15:51.268Z,2.19
2022-12-22T03:18:36.394Z,2.28
2022-12-22T03:21:21.211Z,2.22
2022-12-22T03:24:06.050Z,2.25
2022-12-22T03:26:33.511Z,2.28
2022-12-22T03:29:00.019Z,2.28
2022-12-22T03:31:26.574Z,2.26
2022-12-22T03:33:53.043Z,2.16
2022-12-22T03:36:19.487Z,2.27
2022-12-22T03:38:45.908Z,2.26
2022-12-22T03:41:32.313Z,2.23
2022-12-22T03:44:17.187Z,2.34
2022-12-22T03:46:43.657Z,2.35
2022-12-22T03:49:10.403Z,2.36
2022-12-22T03:51:45.428Z,2.36
2022-12-22T03:54:14.546Z,2.42
2022-12-22T03:56:41.771Z,2.37
2022-12-22T03:59:08.519Z,2.41
2022-12-22T04:01:42.210Z,2.49
2022-12-22T04:04:09.932Z,2.53
2022-12-22T04:06:36.396Z,2.58
2022-12-22T04:09:03.126Z,2.61
2022-12-22T04:11:48.030Z,2.63
2022-12-22T04:14:14.453Z,2.48
2022-12-22T04:16:40.938Z,2.52
2022-12-22T04:19:08.015Z,2.65
2022-12-22T04:21:34.446Z,2.43
2022-12-22T04:24:01.016Z,2.54
2022-12-22T04:26:28.252Z,2.67
2022-12-22T04:28:55.236Z,2.68
2022-12-22T04:31:22.838Z,2.68
2022-12-22T04:33:49.569Z,2.65
2022-12-22T04:36:16.316Z,2.71
2022-12-22T04:38:43.189Z,2.49
2022-12-22T04:41:09.646Z,2.72
2022-12-22T04:43:36.530Z,2.74
2022-12-22T04:46:03.589Z,2.72
2022-12-22T04:48:30.883Z,2.69
2022-12-22T04:51:00.246Z,2.59
2022-12-22T04:53:28.628Z,2.66
2022-12-22T04:55:58.040Z,2.63
2022-12-22T04:58:24.786Z,2.84
2022-12-22T05:00:51.620Z,2.62
2022-12-22T05:03:18.251Z,2.68
2022-12-22T05:05:44.673Z,2.78
2022-12-22T05:08:11.114Z,2.84
2022-12-22T05:10:37.616Z,2.85
2022-12-22T05:13:04.262Z,2.84
2022-12-22T05:15:32.499Z,2.85
2022-12-22T05:17:59.888Z,2.83
2022-12-22T05:20:28.167Z,2.72
2022-12-22T05:22:55.040Z,2.78
2022-12-22T05:25:21.662Z,2.84
2022-12-22T05:27:50.011Z,2.82
2022-12-22T05:30:18.768Z,2.90
2022-12-22T05:32:45.198Z,2.83
2022-12-22T05:35:12.031Z,2.95
2022-12-22T05:37:38.612Z,2.90
2022-12-22T05:40:06.100Z,2.84
2022-12-22T05:42:38.480Z,2.91
2022-12-22T05:45:12.899Z,2.85
2022-12-22T05:47:39.785Z,2.98
2022-12-22T05:50:07.163Z,2.78
2022-12-22T05:52:33.714Z,3.00
2022-12-22T05:55:00.148Z,2.93
2022-12-22T05:57:26.717Z,2.87
2022-12-22T05:59:53.125Z,2.92
2022-12-22T06:02:19.678Z,2.88
2022-12-22T06:04:46.250Z,2.91
2022-12-22T06:07:13.112Z,2.94
2022-12-22T06:09:39.524Z,2.89
2022-12-22T06:12:06.837Z,2.90
2022-12-22T06:14:33.704Z,2.95
2022-12-22T06:17:00.192Z,2.91
2022-12-22T06:19:26.623Z,2.90
2022-12-22T06:21:53.084Z,2.94
2022-12-22T06:24:19.494Z,2.93
2022-12-22T06:26:45.918Z,2.95
2022-12-22T06:29:12.376Z,3.00
2022-12-22T06:31:38.846Z,2.96
2022-12-22T06:34:05.363Z,2.92
2022-12-22T06:36:31.949Z,2.86
2022-12-22T06:38:58.362Z,2.85
2022-12-22T06:41:43.378Z,2.94
2022-12-22T06:44:09.792Z,2.82
2022-12-22T06:46:36.240Z,2.99
2022-12-22T06:49:02.781Z,2.96
2022-12-22T06:51:29.201Z,3.03
2022-12-22T06:53:55.690Z,3.06
2022-12-22T06:56:22.133Z,3.02
2022-12-22T06:58:48.528Z,3.02
2022-12-22T07:01:14.993Z,3.03
2022-12-22T07:03:41.463Z,3.25
2022-12-22T07:06:07.962Z,3.14
2022-12-22T07:08:34.382Z,3.18
2022-12-22T07:11:00.894Z,3.23
2022-12-22T07:13:31.767Z,3.26
2022-12-22T07:16:01.131Z,3.26
2022-12-22T07:18:30.145Z,3.21
2022-12-22T07:20:56.713Z,3.05
2022-12-22T07:23:23.155Z,3.06
2022-12-22T07:25:49.603Z,3.09
2022-12-22T07:28:20.646Z,3.21
2022-12-22T07:30:48.943Z,3.32
2022-12-22T07:33:15.553Z,3.39
2022-12-22T07:35:42.000Z,3.32
2022-12-22T07:38:08.484Z,3.31
2022-12-22T07:40:41.212Z,3.40
2022-12-22T07:43:08.492Z,3.34
2022-12-22T07:45:34.935Z,3.52
2022-12-22T07:48:02.527Z,3.52
2022-12-22T07:50:29.085Z,3.46
2022-12-22T07:53:00.004Z,3.41
2022-12-22T07:55:30.672Z,3.39
2022-12-22T07:57:57.110Z,3.42
2022-12-22T08:00:24.350Z,3.41
2022-12-22T08:02:56.024Z,3.31
2022-12-22T08:05:23.419Z,3.49
2022-12-22T08:07:50.683Z,3.48
2022-12-22T08:10:18.068Z,3.60
2022-12-22T08:12:44.792Z,3.66
2022-12-22T08:15:11.620Z,3.65
2022-12-22T08:17:38.739Z,3.62
2022-12-22T08:20:06.271Z,3.62
2022-12-22T08:22:32.801Z,3.88
2022-12-22T08:24:59.230Z,3.70
2022-12-22T08:27:39.744Z,3.92
2022-12-22T08:30:09.958Z,3.77
2022-12-22T08:32:38.559Z,3.86
2022-12-22T08:35:06.052Z,4.10
2022-12-22T08:37:41.005Z,4.09
2022-12-22T08:40:15.221Z,3.88
2022-12-22T08:42:42.335Z,3.99
2022-12-22T08:45:11.226Z,4.13
2022-12-22T08:47:37.921Z,4.34
2022-12-22T08:50:05.241Z,4.44
2022-12-22T08:52:31.819Z,4.64
2022-12-22T08:54:58.233Z,4.80
2022-12-22T08:57:24.684Z,4.97
2022-12-22T08:59:51.168Z,4.70
2022-12-22T09:02:17.705Z,5.08
2022-12-22T09:04:44.260Z,5.08
2022-12-22T09:07:11.485Z,5.13
2022-12-22T09:09:37.970Z,5.06
2022-12-22T09:12:04.692Z,5.64
2022-12-22T09:14:32.311Z,5.47
2022-12-22T09:16:58.850Z,5.06
2022-12-22T09:19:25.354Z,5.33
2022-12-22T09:21:51.776Z,4.60
2022-12-22T09:24:19.167Z,5.30
2022-12-22T09:26:45.782Z,4.90
2022-12-22T09:29:15.235Z,5.03
2022-12-22T09:31:42.019Z,5.12
2022-12-22T09:34:15.181Z,5.49
2022-12-22T09:36:44.147Z,5.27
2022-12-22T09:39:11.001Z,5.42
2022-12-22T09:41:48.820Z,5.66
2022-12-22T09:44:25.791Z,5.57
2022-12-22T09:46:57.327Z,5.71
2022-12-22T09:49:24.219Z,5.74
2022-12-22T09:52:00.212Z,6.07
2022-12-22T09:54:27.457Z,6.34
2022-12-22T09:56:56.801Z,6.56
2022-12-22T09:59:27.173Z,6.52
2022-12-22T10:01:57.674Z,6.60
2022-12-22T10:04:54.176Z,6.40
2022-12-22T10:07:32.784Z,6.81
2022-12-22T10:10:13.914Z,7.05
2022-12-22T10:12:40.388Z,7.39
2022-12-22T10:15:15.467Z,7.54
2022-12-22T10:17:44.902Z,7.57
2022-12-22T10:20:26.508Z,7.71
2022-12-22T10:23:12.360Z,7.35
2022-12-22T10:29:00.043Z,7.71
2022-12-22T10:31:29.139Z,7.75
2022-12-22T10:34:09.417Z,7.95
2022-12-22T10:36:37.576Z,7.89
2022-12-22T10:39:06.742Z,8.15
2022-12-22T10:41:49.620Z,8.02
2022-12-22T10:44:15.972Z,8.19
2022-12-22T10:46:47.019Z,8.56
2022-12-22T10:49:26.352Z,8.48
2022-12-22T10:51:58.021Z,8.30
2022-12-22T10:54:36.313Z,8.52
2022-12-22T10:57:14.745Z,8.66
2022-12-22T10:59:56.258Z,8.79
2022-12-22T11:02:30.504Z,8.59
2022-12-22T11:05:11.324Z,8.79
2022-12-22T11:07:43.051Z,8.96
2022-12-22T11:10:27.415Z,9.05
2022-12-22T11:13:15.805Z,8.95
2022-12-22T11:15:55.934Z,9.24
2022-12-22T11:19:13.274Z,9.20
2022-12-22T11:21:54.195Z,9.48
2022-12-22T11:25:03.913Z,9.24
2022-12-22T11:27:39.519Z,9.26
2022-12-22T11:30:15.965Z,9.28
2022-12-22T11:33:10.519Z,9.43
2022-12-22T11:35:59.040Z,9.41
2022-12-22T11:38:33.397Z,9.39
2022-12-22T11:41:42.871Z,9.30
2022-12-22T11:44:12.267Z,9.31
2022-12-22T11:46:52.534Z,9.36
2022-12-22T11:49:40.858Z,9.35
2022-12-22T11:52:15.666Z,9.44
2022-12-22T11:54:59.503Z,9.52
2022-12-22T11:57:44.084Z,9.40
2022-12-22T12:00:16.629Z,9.41
2022-12-22T12:03:04.654Z,9.55
2022-12-22T12:05:51.461Z,9.48
2022-12-22T12:08:39.752Z,9.61
2022-12-22T12:11:21.671Z,9.50
2022-12-22T12:14:17.171Z,9.56
2022-12-22T12:16:56.250Z,9.80
2022-12-22T12:19:26.868Z,9.89
2022-12-22T12:21:59.717Z,9.77
2022-12-22T12:24:40.456Z,9.93
2022-12-22T12:27:34.934Z,9.94
2022-12-22T12:30:37.615Z,10.12
2022-12-22T12:33:07.312Z,9.86
2022-12-22T12:35:46.611Z,9.98
2022-12-22T12:39:05.733Z,9.72
2022-12-22T12:41:22.338Z,10.00
2022-12-22T12:43:52.125Z,9.93
2022-12-22T12:46:45.417Z,10.12
2022-12-22T12:49:51.792Z,10.23
2022-12-22T12:52:18.266Z,10.01
2022-12-22T12:54:47.156Z,10.42
2022-12-22T12:57:28.750Z,10.34
2022-12-22T12:59:58.186Z,10.10
2022-12-22T13:02:27.956Z,10.02
2022-12-22T13:05:13.780Z,10.24
2022-12-22T13:08:10.252Z,10.32
2022-12-22T13:10:47.867Z,10.22
2022-12-22T13:13:23.688Z,10.34
2022-12-22T13:15:59.316Z,10.45
2022-12-22T13:18:26.025Z,10.29
2022-12-22T13:21:18.850Z,10.16
2022-12-22T13:24:23.319Z,10.09
2022-12-22T13:26:47.638Z,10.29
2022-12-22T13:29:41.691Z,10.11
2022-12-22T13:32:22.502Z,10.30
2022-12-22T13:37:53.805Z,10.25
2022-12-22T13:40:26.183Z,10.35
2022-12-22T13:42:59.839Z,10.24
2022-12-22T13:45:29.477Z,10.36
2022-12-22T13:47:56.440Z,10.24
2022-12-22T13:50:32.260Z,10.16
2022-12-22T13:53:01.038Z,10.36
2022-12-22T13:55:30.942Z,10.26
2022-12-22T13:58:18.850Z,10.26
2022-12-22T14:00:45.375Z,10.23
2022-12-22T14:03:41.772Z,10.45
2022-12-22T14:06:32.094Z,10.33
2022-12-22T14:09:11.755Z,10.25
2022-12-22T14:11:38.668Z,10.31
2022-12-22T14:14:17.644Z,10.35
2022-12-22T14:16:46.792Z,10.06
2022-12-22T14:19:14.797Z,10.11
2022-12-22T14:21:43.358Z,10.16
2022-12-22T14:24:16.479Z,10.15
2022-12-22T14:26:43.268Z,10.10
2022-12-22T14:29:16.821Z,10.30
2022-12-22T14:31:57.988Z,10.21
2022-12-22T14:34:29.971Z,10.25
2022-12-22T14:37:00.673Z,10.07
2022-12-22T14:39:32.236Z,10.18
2022-12-22T14:41:59.788Z,10.17
2022-12-22T14:44:29.472Z,10.19
2022-12-22T14:47:20.050Z,10.23
2022-12-22T14:50:00.697Z,10.11
2022-12-22T14:52:47.042Z,10.13
2022-12-22T14:55:27.271Z,10.01
2022-12-22T14:57:58.253Z,9.80
2022-12-22T15:00:24.593Z,9.91
2022-12-22T15:02:54.551Z,9.71
2022-12-22T15:05:28.672Z,9.71
2022-12-22T15:08:06.580Z,9.66
2022-12-22T15:10:42.695Z,9.68
2022-12-22T16:29:48.196Z,8.75
2022-12-22T16:32:29.832Z,8.74
2022-12-22T16:35:12.188Z,8.77
2022-12-22T16:37:41.592Z,8.71
2022-12-22T16:40:14.302Z,8.75
2022-12-22T16:46:23.256Z,8.51
2022-12-22T16:48:52.908Z,8.55
2022-12-22T16:51:30.781Z,8.56
2022-12-22T16:53:57.307Z,8.45
2022-12-22T16:56:26.779Z,8.49
2022-12-22T16:58:53.461Z,8.51
2022-12-22T17:01:27.362Z,8.41
2022-12-22T17:03:58.952Z,8.43
2022-12-22T17:06:26.270Z,8.41
2022-12-22T17:08:52.934Z,8.47
2022-12-22T17:11:25.127Z,8.41
2022-12-22T17:13:54.280Z,8.29
2022-12-22T17:16:22.416Z,8.40
2022-12-22T17:18:49.575Z,8.41
2022-12-22T17:21:20.770Z,8.38
2022-12-22T17:23:50.717Z,8.40
2022-12-22T17:26:22.720Z,8.38
2022-12-22T17:28:50.079Z,8.30
2022-12-22T17:31:19.106Z,8.32
2022-12-22T17:33:45.589Z,8.32
2022-12-22T17:36:21.655Z,8.30
2022-12-22T17:38:48.187Z,8.29
2022-12-22T17:41:17.545Z,8.25
2022-12-22T17:43:44.073Z,8.25
2022-12-22T17:46:19.086Z,8.26
2022-12-22T17:48:46.266Z,8.20
2022-12-22T17:51:17.166Z,8.17
2022-12-22T17:53:44.428Z,8.12
2022-12-22T17:56:19.194Z,8.10
2022-12-22T17:58:46.458Z,8.11
2022-12-22T18:01:20.325Z,8.15
2022-12-22T18:03:47.309Z,8.11
2022-12-22T18:06:18.019Z,8.07
2022-12-22T18:08:45.545Z,8.14
2022-12-22T18:11:12.056Z,8.11
2022-12-22T18:13:38.545Z,8.12
2022-12-22T18:16:05.986Z,8.10
2022-12-22T18:18:32.503Z,8.12
2022-12-22T18:21:07.310Z,8.09
2022-12-22T18:23:36.656Z,8.07
2022-12-22T18:26:05.912Z,8.01
2022-12-22T18:28:32.409Z,7.95
2022-12-22T18:30:58.951Z,7.98
2022-12-22T18:33:25.539Z,7.91
2022-12-22T18:35:51.940Z,7.84
2022-12-22T18:38:36.628Z,7.78
2022-12-22T18:41:03.131Z,7.76
2022-12-22T18:43:29.533Z,7.81
2022-12-22T18:45:55.946Z,7.82
2022-12-22T19:35:20.149Z,7.02
2022-12-22T19:37:48.570Z,6.86
2022-12-22T19:40:16.319Z,6.81
2022-12-22T19:42:45.427Z,6.90
2022-12-22T19:45:22.203Z,6.86
2022-12-22T19:47:49.772Z,6.80
2022-12-22T19:50:17.676Z,6.82
2022-12-22T19:52:44.141Z,6.81
2022-12-22T19:55:10.763Z,6.84
2022-12-22T19:57:41.259Z,6.90
2022-12-22T20:00:19.716Z,6.94
2022-12-22T20:02:48.153Z,6.92
2022-12-22T20:05:23.702Z,6.94
2022-12-22T20:07:51.596Z,6.94
2022-12-22T20:10:19.372Z,6.88
2022-12-22T20:12:48.774Z,6.95
2022-12-22T20:15:19.714Z,6.84
2022-12-22T20:17:46.908Z,6.80
2022-12-22T20:20:26.572Z,6.78
2022-12-22T20:22:56.728Z,6.78
2022-12-22T20:25:27.932Z,6.73
2022-12-22T20:27:55.788Z,6.72
2022-12-22T20:30:28.941Z,6.74
2022-12-22T20:32:55.961Z,6.75
2022-12-22T20:35:23.763Z,6.74
2022-12-22T20:37:50.858Z,6.76
2022-12-22T20:40:24.103Z,6.80
2022-12-22T20:42:52.023Z,6.81
2022-12-22T20:45:21.659Z,6.72
2022-12-22T20:47:49.879Z,6.71
2022-12-22T20:50:34.410Z,6.78
2022-12-22T20:53:01.012Z,6.86
2022-12-22T20:55:28.278Z,6.93
2022-12-22T20:57:55.171Z,7.12
2022-12-22T21:00:27.664Z,7.20
2022-12-22T21:02:54.438Z,7.34
2022-12-22T21:05:21.742Z,7.21
2022-12-22T21:07:49.087Z,7.04
2022-12-22T21:10:16.932Z,6.82
2022-12-22T21:12:43.628Z,6.78
2022-12-22T21:15:16.543Z,6.69
2022-12-22T21:17:46.127Z,6.66
2022-12-22T21:20:22.044Z,6.62
2022-12-22T21:22:48.915Z,6.52
2022-12-22T21:25:15.733Z,6.48
2022-12-22T21:27:45.076Z,6.41
2022-12-22T21:30:20.270Z,6.47
2022-12-22T21:32:47.501Z,6.38
2022-12-22T21:35:16.865Z,6.37
2022-12-22T21:37:45.746Z,6.33
2022-12-22T21:40:27.365Z,6.31
2022-12-22T21:42:54.424Z,6.34
2022-12-22T21:45:24.038Z,6.35
2022-12-22T21:47:50.452Z,6.36
2022-12-22T21:50:28.091Z,6.33
2022-12-22T21:52:54.806Z,6.28
2022-12-22T21:55:29.301Z,6.26
2022-12-22T21:57:56.902Z,6.26
2022-12-22T22:00:24.861Z,6.25
2022-12-22T22:02:52.368Z,6.25
2022-12-22T22:05:23.964Z,6.22
2022-12-22T22:07:50.592Z,6.15
2022-12-22T22:10:18.385Z,6.10
2022-12-22T22:12:45.801Z,6.07
2022-12-22T22:15:13.719Z,6.03
2022-12-22T22:17:41.177Z,6.03
2022-12-22T22:20:10.021Z,5.93
2022-12-22T22:22:36.451Z,5.88
2022-12-22T22:25:03.050Z,5.98
2022-12-22T22:27:29.504Z,5.80
2022-12-22T22:29:55.927Z,5.88
2022-12-22T22:32:22.346Z,5.99
2022-12-22T22:34:49.323Z,5.97
2022-12-22T22:37:15.752Z,5.96
2022-12-22T22:39:43.052Z,5.97
2022-12-22T22:42:09.475Z,5.89
2022-12-22T22:44:35.900Z,5.87
2022-12-22T22:47:02.373Z,5.87
2022-12-22T22:49:29.138Z,5.86
2022-12-22T22:51:55.929Z,5.84
2022-12-22T22:54:22.365Z,5.80
2022-12-22T22:56:48.833Z,5.83
2022-12-22T22:59:15.289Z,5.85
2022-12-22T23:01:41.876Z,5.81
2022-12-22T23:04:08.525Z,5.76
2022-12-22T23:06:35.210Z,5.72
2022-12-22T23:09:01.818Z,5.79
2022-12-22T23:11:28.306Z,5.82
2022-12-22T23:13:54.950Z,5.82
2022-12-22T23:16:21.584Z,5.79
2022-12-22T23:18:48.256Z,5.79
2022-12-22T23:21:14.677Z,5.80
2022-12-22T23:23:41.374Z,5.83
2022-12-22T23:26:07.824Z,5.75
2022-12-22T23:28:34.587Z,5.72
2022-12-22T23:31:01.483Z,5.73
2022-12-22T23:33:30.649Z,5.61
2022-12-22T23:35:57.155Z,5.51
2022-12-22T23:38:23.939Z,5.54
2022-12-22T23:40:53.022Z,5.56
2022-12-22T23:43:20.345Z,5.61
2022-12-22T23:45:46.766Z,5.59
2022-12-22T23:48:13.345Z,5.63
2022-12-22T23:50:39.771Z,5.57
2022-12-22T23:53:06.193Z,5.64
2022-12-22T23:55:32.700Z,5.67
2022-12-22T23:57:59.152Z,5.66
